Time;durP1;ratioP1;P1;durP2;ratioP2;P2;SDS_P1;SDS_P2;PMS_P1;PMS_P2;Temp;Humidity;BMP_temperature;BMP_pressure;BME280_temperature;BME280_humidity;BME280_pressure;Samples;Min_cycle;Max_cycle;Signal;HPM_P1;HPM_P2
2022/03/28 00:01:58;;;;;;;13.77;10.53;;;;;;;10.10;76.15;99029.53;4162613;28;20714;-83
2022/03/28 00:04:02;;;;;;;16.10;10.50;;;;;;;10.07;77.09;99034.03;4151160;28;20674;-82
2022/03/28 00:06:07;;;;;;;11.83;9.77;;;;;;;10.04;77.12;99032.44;4137439;28;20653;-82
2022/03/28 00:08:10;;;;;;;12.53;9.73;;;;;;;10.00;76.94;99030.91;4158582;28;20631;-82
2022/03/28 00:10:14;;;;;;;14.73;10.03;;;;;;;9.97;76.96;99020.63;4139082;28;20743;-82
2022/03/28 00:12:19;;;;;;;15.13;9.77;;;;;;;9.93;77.24;99023.44;4161715;28;20669;-83
2022/03/28 00:14:22;;;;;;;16.10;10.40;;;;;;;9.90;77.34;99027.03;4160215;28;21231;-82
2022/03/28 00:16:25;;;;;;;14.80;10.70;;;;;;;9.88;77.88;99031.50;4159117;28;20648;-82
2022/03/28 00:18:29;;;;;;;14.80;10.13;;;;;;;9.86;77.31;99028.13;4151014;28;20643;-83
2022/03/28 00:20:32;;;;;;;18.87;10.40;;;;;;;9.84;77.51;99031.72;4177186;28;21305;-83
2022/03/28 00:22:35;;;;;;;15.20;10.53;;;;;;;9.80;77.80;99021.53;4176202;28;21232;-83
2022/03/28 00:24:39;;;;;;;14.70;10.10;;;;;;;9.77;78.08;99030.34;4156760;28;20682;-82
2022/03/28 00:26:42;;;;;;;15.93;10.90;;;;;;;9.73;77.21;99020.19;4155293;28;20985;-82
2022/03/28 00:28:47;;;;;;;13.50;10.67;;;;;;;9.68;78.33;99023.00;4164223;28;21027;-82
2022/03/28 00:30:50;;;;;;;15.20;10.70;;;;;;;9.63;77.52;99014.56;4146724;28;20997;-82
2022/03/28 00:32:54;;;;;;;16.63;10.87;;;;;;;9.60;77.43;99016.47;4160553;28;20669;-82
2022/03/28 00:34:58;;;;;;;14.83;9.80;;;;;;;9.57;78.76;99017.47;4143617;28;20669;-82
2022/03/28 00:37:01;;;;;;;15.77;10.23;;;;;;;9.53;77.57;99017.69;4158204;28;20704;-82
2022/03/28 00:39:04;;;;;;;12.90;10.47;;;;;;;9.48;78.39;99006.66;4179436;28;20648;-83
2022/03/28 00:41:08;;;;;;;14.03;10.83;;;;;;;9.46;77.84;99011.94;4155186;28;20687;-83
2022/03/28 00:43:11;;;;;;;17.90;11.13;;;;;;;9.43;78.99;99006.91;4160762;28;21079;-82
2022/03/28 00:45:17;;;;;;;18.90;10.90;;;;;;;9.40;78.10;99006.22;4157054;28;20682;-83
2022/03/28 00:47:20;;;;;;;14.67;10.60;;;;;;;9.37;78.64;99005.50;4157412;28;20639;-82
2022/03/28 00:49:23;;;;;;;14.67;11.30;;;;;;;9.33;78.37;98996.19;4163101;28;21230;-83
2022/03/28 00:51:26;;;;;;;16.30;11.00;;;;;;;9.30;78.83;98994.56;4159840;28;20638;-83
2022/03/28 00:53:30;;;;;;;16.13;11.10;;;;;;;9.26;78.13;98995.63;4153427;28;20691;-82
2022/03/28 00:55:34;;;;;;;17.57;10.70;;;;;;;9.22;77.72;98996.69;4161722;28;20763;-83
2022/03/28 00:57:38;;;;;;;14.20;9.60;;;;;;;9.18;79.29;98994.31;4157849;28;20689;-82
2022/03/28 00:59:42;;;;;;;16.90;10.80;;;;;;;9.14;78.83;98987.56;4161079;28;20720;-83
2022/03/28 01:01:47;;;;;;;14.47;10.37;;;;;;;9.11;79.40;98990.31;4157203;28;20664;-82
2022/03/28 01:03:51;;;;;;;13.43;9.70;;;;;;;9.06;77.91;98987.09;4139555;28;20757;-83
2022/03/28 01:05:54;;;;;;;15.13;10.37;;;;;;;9.01;78.63;98986.47;4161168;28;20641;-82
2022/03/28 01:07:57;;;;;;;16.67;10.67;;;;;;;9.01;79.64;98986.47;4173951;28;20708;-82
2022/03/28 01:10:02;;;;;;;15.00;10.53;;;;;;;8.97;78.92;98979.72;4156923;28;20651;-82
2022/03/28 01:12:06;;;;;;;15.03;10.07;;;;;;;8.92;79.52;98977.34;4161388;28;20644;-82
2022/03/28 01:14:09;;;;;;;13.53;9.47;;;;;;;8.90;78.40;98977.50;4157135;28;20655;-82
2022/03/28 01:16:12;;;;;;;13.60;10.30;;;;;;;8.89;79.66;98976.66;4145316;28;21052;-82
2022/03/28 01:18:16;;;;;;;13.90;9.73;;;;;;;8.85;78.83;98971.66;4171371;28;20727;-82
2022/03/28 01:20:22;;;;;;;13.47;9.57;;;;;;;8.79;79.17;98977.16;4176233;28;20693;-82
2022/03/28 01:22:27;;;;;;;14.50;10.67;;;;;;;8.76;79.81;98967.72;4175268;28;20635;-82
2022/03/28 01:24:31;;;;;;;16.07;10.80;;;;;;;8.76;79.96;98970.34;4159408;28;20725;-83
2022/03/28 01:26:35;;;;;;;13.93;10.53;;;;;;;8.73;80.69;98972.25;4155384;28;21359;-81
2022/03/28 01:28:39;;;;;;;15.60;10.10;;;;;;;8.63;80.18;98968.38;4159734;28;20632;-83
2022/03/28 01:30:42;;;;;;;13.80;10.33;;;;;;;8.58;79.18;98973.78;4174534;28;20908;-82
2022/03/28 01:32:46;;;;;;;14.83;10.10;;;;;;;8.57;80.34;98968.69;4163824;28;20651;-82
2022/03/28 01:34:50;;;;;;;15.47;9.63;;;;;;;8.58;79.82;98965.16;4161671;28;20682;-82
2022/03/28 01:36:53;;;;;;;14.23;9.50;;;;;;;8.58;80.61;98954.75;4153969;28;20628;-83
2022/03/28 01:38:57;;;;;;;15.93;10.30;;;;;;;8.53;80.35;98964.53;4159810;28;20662;-82
2022/03/28 01:41:01;;;;;;;16.30;10.00;;;;;;;8.51;81.22;98961.19;4139079;28;20960;-82
2022/03/28 01:43:04;;;;;;;15.60;10.57;;;;;;;8.49;80.97;98957.78;4157110;28;20638;-82
2022/03/28 01:45:08;;;;;;;12.40;9.80;;;;;;;8.49;81.14;98955.19;4159569;28;20660;-83
2022/03/28 01:47:11;;;;;;;13.77;10.43;;;;;;;8.47;80.41;98960.47;4156980;28;21309;-82
2022/03/28 01:49:16;;;;;;;17.57;10.50;;;;;;;8.46;80.26;98953.59;4160701;28;20646;-83
2022/03/28 01:51:19;;;;;;;15.97;11.07;;;;;;;8.42;80.52;98953.81;4160936;28;20676;-82
2022/03/28 01:53:22;;;;;;;15.03;10.20;;;;;;;8.39;80.23;98946.16;4159496;28;21219;-82
2022/03/28 01:55:27;;;;;;;14.83;10.67;;;;;;;8.36;81.47;98943.69;4160900;28;20695;-83
2022/03/28 01:57:30;;;;;;;15.13;9.90;;;;;;;8.36;80.37;98948.03;4157872;28;21240;-82
2022/03/28 01:59:34;;;;;;;15.37;10.03;;;;;;;8.33;80.28;98943.81;4141195;28;20645;-83
2022/03/28 02:01:38;;;;;;;17.47;11.07;;;;;;;8.32;80.38;98943.91;4145877;28;20956;-82
2022/03/28 02:03:41;;;;;;;12.10;9.40;;;;;;;8.27;80.75;98944.09;4141533;28;21272;-83
2022/03/28 02:05:44;;;;;;;15.17;10.67;;;;;;;8.22;81.19;98937.41;4158642;28;20648;-82
2022/03/28 02:07:49;;;;;;;12.00;9.67;;;;;;;8.17;80.97;98939.41;4174099;28;20636;-83
2022/03/28 02:09:52;;;;;;;14.47;10.63;;;;;;;8.11;81.07;98935.31;4157741;28;20640;-83
2022/03/28 02:11:57;;;;;;;14.17;10.70;;;;;;;8.08;80.96;98932.81;4158212;28;20631;-83
2022/03/28 02:14:00;;;;;;;15.90;9.80;;;;;;;8.06;81.81;98928.63;4149884;28;20635;-83
2022/03/28 02:16:03;;;;;;;15.03;10.63;;;;;;;8.04;81.08;98931.28;4159587;28;20627;-82
2022/03/28 02:18:07;;;;;;;16.20;10.83;;;;;;;8.04;81.97;98927.81;4166457;28;21246;-82
2022/03/28 02:20:11;;;;;;;13.70;10.40;;;;;;;7.99;82.10;98922.84;4160907;28;20641;-83
2022/03/28 02:22:14;;;;;;;16.33;11.00;;;;;;;7.97;81.12;98926.44;4175393;28;20633;-83
2022/03/28 02:24:18;;;;;;;19.23;11.47;;;;;;;7.94;82.30;98926.56;4159467;28;20738;-83
2022/03/28 02:26:21;;;;;;;14.33;10.60;;;;;;;7.93;81.34;98926.63;4163568;28;20634;-82
2022/03/28 02:28:25;;;;;;;17.53;11.13;;;;;;;7.91;81.83;98923.25;4161831;28;21166;-82
2022/03/28 02:30:28;;;;;;;14.17;10.90;;;;;;;7.90;82.20;98924.19;4159118;28;20643;-83
2022/03/28 02:32:32;;;;;;;14.27;10.67;;;;;;;7.86;81.83;98926.03;4159410;28;20629;-83
2022/03/28 02:34:36;;;;;;;13.60;10.00;;;;;;;7.84;81.46;98927.03;4140170;28;20671;-83
2022/03/28 02:36:39;;;;;;;16.30;10.93;;;;;;;7.83;81.52;98933.13;4157656;28;21333;-82
2022/03/28 02:38:43;;;;;;;16.13;10.60;;;;;;;7.79;81.74;98934.19;4156928;28;21102;-83
2022/03/28 02:40:46;;;;;;;17.13;10.83;;;;;;;7.78;81.49;98919.53;4157440;28;21159;-82
2022/03/28 02:42:49;;;;;;;16.10;10.30;;;;;;;7.78;81.54;98927.31;4156914;28;20660;-83
2022/03/28 02:44:54;;;;;;;19.70;11.47;;;;;;;7.77;82.04;98929.06;4152390;28;20716;-83
2022/03/28 02:46:57;;;;;;;15.20;10.40;;;;;;;7.78;82.43;98927.31;4144792;28;20643;-82
2022/03/28 02:49:00;;;;;;;16.10;9.70;;;;;;;7.73;82.08;98929.28;4156063;28;20748;-83
2022/03/28 02:51:03;;;;;;;18.03;11.33;;;;;;;7.72;82.61;98928.41;4160139;28;20640;-82
2022/03/28 02:53:07;;;;;;;17.97;10.23;;;;;;;7.66;82.62;98922.66;4152613;28;21091;-83
2022/03/28 02:55:10;;;;;;;15.60;10.50;;;;;;;7.64;81.68;98924.47;4156758;28;20635;-82
2022/03/28 02:57:13;;;;;;;17.93;10.97;;;;;;;7.60;82.10;98922.91;4161619;28;20773;-82
2022/03/28 02:59:17;;;;;;;15.93;10.40;;;;;;;7.55;82.20;98925.72;4159294;28;20661;-83
2022/03/28 03:01:22;;;;;;;15.43;10.83;;;;;;;7.51;82.50;98924.16;4158634;28;20659;-83
2022/03/28 03:03:25;;;;;;;16.37;10.77;;;;;;;7.49;82.32;98922.53;4162719;28;20710;-83
2022/03/28 03:05:28;;;;;;;17.43;12.00;;;;;;;7.47;81.95;98916.56;4157828;28;20665;-83
2022/03/28 03:07:32;;;;;;;18.30;10.90;;;;;;;7.49;82.56;98922.53;4164154;28;20635;-82
2022/03/28 03:09:35;;;;;;;16.57;11.53;;;;;;;7.46;82.30;98919.22;4162423;28;20646;-83
2022/03/28 03:11:40;;;;;;;21.63;11.00;;;;;;;7.48;82.45;98917.41;4163574;28;20633;-83
2022/03/28 03:13:43;;;;;;;15.40;11.03;;;;;;;7.49;82.76;98909.56;4159155;28;20704;-83
2022/03/28 03:15:46;;;;;;;16.77;11.80;;;;;;;7.49;83.79;98910.41;4145543;28;20667;-83
2022/03/28 03:17:51;;;;;;;18.23;11.10;;;;;;;7.48;84.10;98918.25;4176601;28;21347;-83
2022/03/28 03:19:54;;;;;;;16.73;12.63;;;;;;;7.48;83.68;98908.69;4157649;28;20755;-82
2022/03/28 03:21:58;;;;;;;16.97;11.90;;;;;;;7.45;83.17;98908.00;4156506;28;20651;-83
2022/03/28 03:24:01;;;;;;;19.57;10.87;;;;;;;7.42;83.24;98909.91;4160544;28;21092;-83
2022/03/28 03:26:04;;;;;;;15.47;10.93;;;;;;;7.38;83.13;98909.19;4158157;28;20647;-82
2022/03/28 03:28:07;;;;;;;20.30;11.87;;;;;;;7.34;83.42;98901.59;4161495;28;20633;-83
2022/03/28 03:30:12;;;;;;;16.97;11.00;;;;;;;7.26;82.50;98907.13;4160953;28;21303;-83
2022/03/28 03:32:15;;;;;;;17.87;10.27;;;;;;;7.25;82.14;98905.41;4160853;28;20636;-82
2022/03/28 03:34:20;;;;;;;19.50;12.07;;;;;;;7.24;82.60;98905.47;4143533;28;20621;-83
2022/03/28 03:36:23;;;;;;;15.47;11.27;;;;;;;7.21;82.47;98898.66;4172451;28;21040;-82
2022/03/28 03:38:27;;;;;;;17.70;12.20;;;;;;;7.22;82.65;98900.34;4153567;28;21243;-82
2022/03/28 03:40:30;;;;;;;15.63;11.17;;;;;;;7.22;83.45;98900.34;4166810;28;20641;-82
2022/03/28 03:42:33;;;;;;;18.60;12.40;;;;;;;7.21;83.48;98898.66;4144945;28;20639;-82
2022/03/28 03:44:36;;;;;;;17.63;12.40;;;;;;;7.24;83.56;98895.94;4142919;28;20641;-83
2022/03/28 03:46:40;;;;;;;15.73;11.25;;;;;;;7.23;83.62;98903.78;4146117;28;21219;-83
2022/03/28 03:48:43;;;;;;;18.20;12.50;;;;;;;7.20;83.29;98899.59;4160769;28;20195;-83
2022/03/28 03:50:48;;;;;;;18.33;12.47;;;;;;;7.19;83.04;98903.09;4141607;28;20621;-83
2022/03/28 03:52:51;;;;;;;17.30;10.43;;;;;;;7.14;82.94;98896.38;4158495;28;20647;-83
2022/03/28 03:54:55;;;;;;;17.70;11.50;;;;;;;7.10;82.54;98900.03;4160893;28;20650;-83
2022/03/28 03:56:58;;;;;;;17.25;10.98;;;;;;;7.05;82.88;98895.03;4162325;28;20990;-82
2022/03/28 03:59:01;;;;;;;18.00;11.17;;;;;;;7.08;82.74;98899.22;4177936;28;20275;-83
2022/03/28 04:01:05;;;;;;;15.55;11.52;;;;;;;7.09;83.29;98894.00;4163623;28;20649;-83
2022/03/28 04:03:09;;;;;;;16.30;13.07;;;;;;;7.06;83.75;98891.53;4177058;28;20311;-83
2022/03/28 04:05:12;;;;;;;18.27;11.17;;;;;;;7.04;83.60;98889.91;4159222;28;20247;-82
2022/03/28 04:07:20;;;;;;;18.70;12.10;;;;;;;7.02;83.96;98891.72;4156192;28;21221;-83
2022/03/28 04:09:23;;;;;;;17.05;11.35;;;;;;;6.99;83.99;98894.47;4168570;28;20662;-82
2022/03/28 04:11:26;;;;;;;16.93;12.17;;;;;;;7.00;83.96;98897.88;4161369;28;20744;-82
2022/03/28 04:13:30;;;;;;;17.67;12.93;;;;;;;6.97;84.56;98888.47;4148197;28;20668;-82
2022/03/28 04:15:33;;;;;;;17.30;12.00;;;;;;;6.95;84.46;98886.88;4157340;28;20648;-83
2022/03/28 04:17:40;;;;;;;19.50;14.10;;;;;;;6.90;83.70;98883.59;4176696;28;20635;-83
2022/03/28 04:19:43;;;;;;;17.87;12.90;;;;;;;6.86;84.41;98887.25;4146172;28;20690;-83
2022/03/28 04:21:48;;;;;;;16.60;11.83;;;;;;;6.83;84.35;98879.59;4158565;28;20638;-83
2022/03/28 04:23:53;;;;;;;13.95;10.93;;;;;;;6.78;84.45;98879.78;4160933;28;20621;-83
2022/03/28 04:25:56;;;;;;;18.65;13.05;;;;;;;6.73;84.26;98880.88;4160379;28;20852;-82
2022/03/28 04:28:00;;;;;;;20.65;13.70;;;;;;;6.69;83.83;98877.56;4149271;28;20261;-82
2022/03/28 04:30:04;;;;;;;18.70;13.00;;;;;;;6.68;83.84;98880.22;4160608;28;20206;-83
2022/03/28 04:32:08;;;;;;;20.27;13.20;;;;;;;6.67;84.24;98878.50;4159192;28;20213;-83
2022/03/28 04:34:12;;;;;;;22.23;13.73;;;;;;;6.67;83.53;98886.28;4159923;28;20648;-83
2022/03/28 04:36:15;;;;;;;18.00;13.17;;;;;;;6.71;83.92;98885.28;4144345;28;20650;-82
2022/03/28 04:38:18;;;;;;;23.50;14.70;;;;;;;6.69;84.17;98881.88;4165774;28;20727;-83
2022/03/28 04:40:23;;;;;;;23.05;13.70;;;;;;;6.64;83.65;98878.63;4159379;28;20257;-83
2022/03/28 04:42:26;;;;;;;23.25;13.55;;;;;;;6.65;84.02;98888.13;4158601;28;20206;-82
2022/03/28 04:44:29;;;;;;;26.08;15.82;;;;;;;6.66;84.63;98889.78;4160249;28;20255;-83
2022/03/28 04:46:33;;;;;;;21.42;14.50;;;;;;;6.64;84.63;98876.06;4163944;28;20211;-83
2022/03/28 04:48:36;;;;;;;20.63;14.70;;;;;;;6.62;84.46;98880.47;4162833;28;20194;-83
2022/03/28 04:50:40;;;;;;;23.57;15.13;;;;;;;6.58;84.44;98881.47;4159408;28;21282;-83
2022/03/28 04:52:43;;;;;;;20.83;13.70;;;;;;;6.56;84.21;98878.94;4156774;28;20831;-83
2022/03/28 04:54:46;;;;;;;25.23;13.70;;;;;;;6.54;84.48;98882.53;4161498;28;20734;-82
2022/03/28 04:56:51;;;;;;;22.30;13.95;;;;;;;6.55;84.13;98881.59;4156885;28;20257;-82
2022/03/28 04:58:54;;;;;;;19.25;13.00;;;;;;;6.56;83.83;98891.91;4145694;28;20245;-83
2022/03/28 05:00:58;;;;;;;19.65;12.30;;;;;;;6.59;84.24;98890.94;4159826;28;20235;-82
2022/03/28 05:03:01;;;;;;;19.23;13.30;;;;;;;6.59;84.62;98878.81;4141389;28;20307;-83
2022/03/28 05:05:06;;;;;;;21.87;13.47;;;;;;;6.59;84.50;98891.78;4160994;28;20219;-83
2022/03/28 05:07:09;;;;;;;19.30;13.50;;;;;;;6.58;84.77;98887.53;4161425;28;20630;-83
2022/03/28 05:09:13;;;;;;;21.97;13.77;;;;;;;6.58;84.66;98884.06;4158877;28;20198;-83
2022/03/28 05:11:16;;;;;;;20.00;13.20;;;;;;;6.57;84.42;98895.34;4159283;28;20768;-83
2022/03/28 05:13:21;;;;;;;20.10;12.57;;;;;;;6.57;84.47;98888.41;4159518;28;20646;-82
2022/03/28 05:15:24;;;;;;;19.15;13.35;;;;;;;6.57;84.34;98892.78;4141319;28;20650;-84
2022/03/28 05:17:29;;;;;;;17.45;12.13;;;;;;;6.57;84.37;98890.19;4161340;28;20301;-83
2022/03/28 05:19:32;;;;;;;20.67;13.00;;;;;;;6.56;84.77;98888.47;4139642;28;20224;-83
2022/03/28 05:21:35;;;;;;;20.42;12.95;;;;;;;6.54;84.87;98887.72;4143003;28;20756;-83
2022/03/28 05:23:39;;;;;;;22.33;13.93;;;;;;;6.54;84.69;98881.66;4174775;28;20218;-84
2022/03/28 05:25:43;;;;;;;16.90;12.50;;;;;;;6.56;84.84;98891.06;4158175;28;20641;-83
2022/03/28 05:27:47;;;;;;;17.83;12.32;;;;;;;6.58;85.15;98886.66;4159727;28;20198;-83
2022/03/28 05:29:52;;;;;;;18.83;13.85;;;;;;;6.66;85.37;98882.88;4138231;28;20289;-84
2022/03/28 05:31:56;;;;;;;18.63;12.23;;;;;;;6.77;85.06;98879.84;4141405;28;20776;-83
2022/03/28 05:33:59;;;;;;;20.13;12.75;;;;;;;6.88;84.41;98877.66;4157140;28;20209;-84
2022/03/28 05:36:03;;;;;;;17.92;12.80;;;;;;;6.98;84.84;98879.81;4138662;28;20687;-84
2022/03/28 05:38:07;;;;;;;29.23;18.95;;;;;;;7.08;84.38;98887.13;4139782;28;20572;-84
2022/03/28 05:40:11;;;;;;;18.63;13.57;;;;;;;7.20;84.20;98886.63;4146699;28;20233;-84
2022/03/28 05:42:16;;;;;;;18.15;12.73;;;;;;;7.29;84.18;98881.03;4156626;28;20678;-81
2022/03/28 05:44:20;;;;;;;20.47;13.13;;;;;;;7.41;83.98;98880.50;4159343;28;20238;-81
2022/03/28 05:46:25;;;;;;;20.60;12.88;;;;;;;7.53;82.92;98890.34;4159483;28;20658;-81
2022/03/28 05:48:29;;;;;;;22.23;14.40;;;;;;;7.62;83.96;98885.63;4157143;28;20209;-81
2022/03/28 05:50:32;;;;;;;19.05;12.98;;;;;;;7.74;82.92;98885.06;4158572;28;20678;-81
2022/03/28 05:52:35;;;;;;;20.77;13.02;;;;;;;7.86;83.33;98886.25;4154467;28;20210;-81
2022/03/28 05:54:39;;;;;;;17.27;13.43;;;;;;;7.97;82.42;98885.72;4143000;28;20302;-82
2022/03/28 05:56:42;;;;;;;19.40;13.60;;;;;;;8.07;83.13;98891.31;4143421;28;20210;-81
2022/03/28 05:58:46;;;;;;;20.60;14.70;;;;;;;8.18;82.20;98881.34;4154981;28;20634;-84
2022/03/28 06:00:49;;;;;;;18.50;12.70;;;;;;;8.30;81.30;98885.94;4160528;28;20785;-84
2022/03/28 06:02:55;;;;;;;20.63;13.73;;;;;;;8.44;82.08;98883.56;4157050;28;20621;-84
2022/03/28 06:05:00;;;;;;;17.00;12.50;;;;;;;8.57;81.50;98890.72;4159294;28;20641;-85
2022/03/28 06:07:04;;;;;;;18.37;13.10;;;;;;;8.71;80.42;98893.47;4176387;28;20642;-84
2022/03/28 06:09:07;;;;;;;18.70;12.93;;;;;;;8.86;81.04;98900.53;4141456;28;20738;-82
2022/03/28 06:11:11;;;;;;;19.17;12.90;;;;;;;8.99;80.34;98900.72;4159444;28;20626;-85
2022/03/28 06:13:16;;;;;;;20.47;13.87;;;;;;;9.12;79.74;98893.97;4160816;28;20663;-83
2022/03/28 06:15:19;;;;;;;20.87;12.83;;;;;;;9.26;80.13;98899.34;4163426;28;20707;-86
2022/03/28 06:17:23;;;;;;;18.60;13.33;;;;;;;9.40;78.42;98896.88;4161680;28;20635;-82
2022/03/28 06:19:27;;;;;;;18.10;12.80;;;;;;;9.49;78.58;98894.63;4174243;28;21124;-83
2022/03/28 06:21:31;;;;;;;18.90;12.90;;;;;;;9.62;77.64;98887.03;4156823;28;21256;-83
2022/03/28 06:23:42;;;;;;;18.70;13.93;;;;;;;9.74;77.35;98892.47;4156967;28;21268;-85
2022/03/28 06:25:57;;;;;;;20.00;14.60;;;;;;;9.89;77.68;98895.09;4140810;28;20769;-85
2022/03/28 06:28:01;;;;;;;20.00;14.43;;;;;;;10.03;77.37;98895.25;4154066;28;20635;-87
2022/03/28 06:30:05;;;;;;;20.43;13.47;;;;;;;10.15;76.57;98894.59;4162767;28;20640;-85
2022/03/28 06:32:09;;;;;;;17.17;14.17;;;;;;;10.30;76.87;98896.38;4158971;28;20632;-84
2022/03/28 06:34:12;;;;;;;20.70;14.60;;;;;;;10.45;75.41;98892.94;4159700;28;20703;-84
2022/03/28 06:36:17;;;;;;;18.33;12.83;;;;;;;10.60;75.40;98898.13;4142125;28;21247;-84
2022/03/28 06:38:21;;;;;;;21.87;14.27;;;;;;;10.69;74.59;98894.16;4157668;28;20960;-84
2022/03/28 06:40:43;;;;;;;20.87;14.20;;;;;;;10.83;75.93;98901.13;4162118;28;20628;-84
2022/03/28 06:43:05;;;;;;;22.60;16.23;;;;;;;11.06;74.54;98899.81;4155779;28;20606;-82
2022/03/28 06:45:29;;;;;;;25.67;18.70;;;;;;;11.18;73.35;98899.13;4156993;28;21164;-82
2022/03/28 06:47:53;;;;;;;18.53;14.80;;;;;;;11.31;73.85;98898.31;4159105;28;20693;-86
2022/03/28 06:50:16;;;;;;;22.50;13.90;;;;;;;11.41;72.71;98900.31;4156831;28;20640;-82
2022/03/28 06:52:42;;;;;;;22.33;13.90;;;;;;;11.56;72.32;98903.81;4143203;28;20637;-83
2022/03/28 06:55:06;;;;;;;20.00;16.20;;;;;;;11.70;72.99;98893.34;4146240;28;20675;-83
2022/03/28 06:57:30;;;;;;;22.50;14.57;;;;;;;11.79;72.56;98897.13;4158755;28;20620;-83
2022/03/28 06:59:53;;;;;;;21.20;15.00;;;;;;;12.02;73.17;98891.31;4164887;28;20635;-83
2022/03/28 07:02:17;;;;;;;29.03;20.50;;;;;;;12.24;71.09;98891.69;4159669;28;20681;-83
2022/03/28 07:04:41;;;;;;;23.80;17.10;;;;;;;12.47;72.28;98889.31;4162203;28;20699;-83
2022/03/28 07:07:05;;;;;;;21.60;16.30;;;;;;;12.63;71.60;98891.78;4147078;28;20635;-82
2022/03/28 07:09:30;;;;;;;23.80;16.33;;;;;;;12.80;71.69;98887.16;4156817;28;20639;-83
2022/03/28 07:11:54;;;;;;;21.00;14.60;;;;;;;12.95;70.17;98884.41;4158925;28;21079;-83
2022/03/28 07:14:18;;;;;;;21.07;14.90;;;;;;;13.18;68.89;98890.78;4156719;28;20627;-83
2022/03/28 08:23:37;;;;;;;21.90;15.30;;;;;;;17.47;62.04;98863.91;4254406;27;20896;-84
2022/03/28 08:25:40;;;;;;;18.27;13.57;;;;;;;17.66;58.31;98861.41;4219687;28;20733;-85
2022/03/28 08:27:44;;;;;;;21.00;13.70;;;;;;;17.82;58.07;98862.59;4234653;27;20633;-84
2022/03/28 08:29:47;;;;;;;22.10;14.67;;;;;;;17.95;56.52;98863.22;4225650;28;20699;-83
2022/03/28 08:31:50;;;;;;;18.93;14.50;;;;;;;18.03;55.63;98860.78;4226277;28;20635;-84
2022/03/28 08:33:54;;;;;;;21.40;14.17;;;;;;;18.22;57.56;98860.88;4233860;28;20633;-84
2022/03/28 08:35:57;;;;;;;20.47;14.43;;;;;;;18.33;56.70;98861.63;4250958;27;20636;-84
2022/03/28 08:38:01;;;;;;;29.70;16.70;;;;;;;18.51;57.40;98857.38;4253454;27;20628;-84
2022/03/28 08:40:07;;;;;;;20.90;15.43;;;;;;;18.71;56.85;98859.09;4225183;28;20644;-84
2022/03/28 08:42:12;;;;;;;25.53;14.80;;;;;;;18.77;54.47;98853.28;4224966;28;20607;-84
2022/03/28 08:44:16;;;;;;;18.23;14.87;;;;;;;18.84;54.23;98857.88;4238289;27;20723;-85
2022/03/28 08:46:19;;;;;;;21.53;15.40;;;;;;;18.89;55.06;98853.00;4238357;28;21035;-85
2022/03/28 08:48:23;;;;;;;22.87;14.40;;;;;;;18.87;54.25;98854.09;4225336;28;21345;-84
2022/03/28 08:50:26;;;;;;;28.40;15.23;;;;;;;18.95;54.91;98844.53;4238115;27;20633;-82
2022/03/28 08:52:30;;;;;;;19.00;14.97;;;;;;;19.09;52.15;98852.94;4215708;28;20673;-82
2022/03/28 08:54:34;;;;;;;18.27;14.50;;;;;;;19.27;51.93;98850.41;4220800;28;20677;-82
2022/03/28 08:56:39;;;;;;;24.00;16.20;;;;;;;19.30;50.35;98845.66;4255815;27;21089;-84
2022/03/28 08:58:45;;;;;;;25.13;15.17;;;;;;;19.40;52.18;98843.88;4234968;28;20630;-84
2022/03/28 09:00:49;;;;;;;30.53;19.10;;;;;;;19.57;53.19;98846.63;4223159;28;20626;-84
2022/03/28 09:02:57;;;;;;;22.87;15.40;;;;;;;19.64;50.58;98846.91;4234501;28;20672;-84
2022/03/28 09:05:01;;;;;;;24.80;16.20;;;;;;;19.68;53.75;98843.84;4233970;28;20637;-82
2022/03/28 09:07:04;;;;;;;24.13;14.23;;;;;;;19.82;54.11;98843.38;4231904;28;20640;-82
2022/03/28 09:09:19;;;;;;;23.83;15.67;;;;;;;19.90;51.22;98838.22;4229341;28;20669;-84
2022/03/28 09:11:23;;;;;;;30.57;16.70;;;;;;;19.97;51.47;98834.03;4242486;27;20624;-80
2022/03/28 09:13:44;;;;;;;31.37;15.70;;;;;;;20.01;51.63;98838.03;4224842;28;21076;-80
2022/03/28 09:15:49;;;;;;;23.47;15.53;;;;;;;20.11;52.71;98830.91;4223139;28;20630;-80
2022/03/28 09:17:56;;;;;;;23.23;15.13;;;;;;;20.25;51.15;98825.13;4220875;28;20721;-80
2022/03/28 09:20:03;;;;;;;23.60;14.50;;;;;;;20.26;48.98;98824.16;4222099;28;20630;-81
2022/03/28 09:22:12;;;;;;;21.30;15.20;;;;;;;20.34;52.45;98828.56;4202650;28;20643;-81
2022/03/28 09:24:16;;;;;;;24.80;15.53;;;;;;;20.35;51.82;98824.09;4209245;28;21209;-80
2022/03/28 09:26:20;;;;;;;22.67;15.97;;;;;;;20.38;51.35;98827.28;4223526;27;20987;-80
2022/03/28 09:28:25;;;;;;;24.63;16.83;;;;;;;20.43;50.60;98813.59;4224304;28;20641;-80
2022/03/28 09:30:33;;;;;;;23.97;16.50;;;;;;;20.50;50.22;98812.84;4195462;28;20699;-83
2022/03/28 09:32:38;;;;;;;22.83;15.87;;;;;;;20.62;50.74;98811.66;4206165;28;20727;-82
2022/03/28 09:34:42;;;;;;;25.27;16.67;;;;;;;20.67;50.84;98811.22;4194692;28;20639;-83
2022/03/28 09:36:48;;;;;;;23.20;16.43;;;;;;;20.71;51.08;98808.13;4221183;28;20720;-83
2022/03/28 09:38:57;;;;;;;23.57;16.27;;;;;;;20.76;51.04;98802.38;4185050;28;20638;-83
2022/03/28 09:41:01;;;;;;;27.90;15.97;;;;;;;20.80;49.25;98805.41;4221552;28;21136;-83
2022/03/28 09:43:06;;;;;;;22.33;16.13;;;;;;;20.82;50.61;98798.16;4208486;28;20630;-83
2022/03/28 09:45:20;;;;;;;28.77;17.40;;;;;;;20.83;49.59;98799.00;4189236;28;20636;-83
2022/03/28 09:47:25;;;;;;;26.00;15.83;;;;;;;20.86;50.51;98796.03;4223718;28;21226;-83
2022/03/28 09:49:28;;;;;;;25.57;16.17;;;;;;;20.93;52.25;98786.50;4208293;28;20681;-83
2022/03/28 09:51:34;;;;;;;22.33;16.50;;;;;;;20.85;46.93;98779.28;4210262;28;21184;-83
2022/03/28 09:53:39;;;;;;;26.43;16.43;;;;;;;20.81;47.81;98774.44;4193026;28;20648;-83
2022/03/28 09:55:46;;;;;;;25.07;16.30;;;;;;;20.82;49.23;98768.13;4211754;28;20700;-83
2022/03/28 09:57:55;;;;;;;28.50;16.80;;;;;;;20.84;49.12;98764.34;4189538;28;20640;-82
2022/03/28 10:00:09;;;;;;;25.27;17.57;;;;;;;20.92;49.93;98764.41;4192035;28;21004;-83
2022/03/28 10:02:17;;;;;;;29.03;17.57;;;;;;;20.95;48.30;98761.47;4224096;28;21260;-83
2022/03/28 10:04:22;;;;;;;27.20;17.10;;;;;;;21.00;48.51;98761.00;4206219;28;20638;-83
2022/03/28 10:06:26;;;;;;;24.60;15.67;;;;;;;21.14;49.88;98755.16;4225175;28;20716;-82
2022/03/28 10:08:29;;;;;;;24.47;16.37;;;;;;;21.19;48.67;98752.91;4206479;28;20627;-83
2022/03/28 10:10:33;;;;;;;25.60;16.37;;;;;;;21.23;48.85;98746.25;4183216;28;20623;-83
2022/03/28 10:12:36;;;;;;;21.53;15.80;;;;;;;21.28;47.55;98748.31;4218854;28;20642;-83
2022/03/28 10:14:40;;;;;;;25.27;16.00;;;;;;;21.30;48.24;98742.84;4189378;28;20985;-83
2022/03/28 10:16:43;;;;;;;21.50;15.17;;;;;;;21.38;47.13;98740.25;4199396;28;20635;-82
2022/03/28 10:18:50;;;;;;;28.13;16.43;;;;;;;21.31;47.40;98736.56;4188405;28;20654;-85
2022/03/28 10:20:55;;;;;;;22.47;15.23;;;;;;;21.29;45.68;98733.22;4186690;28;20739;-84
2022/03/28 10:22:59;;;;;;;27.97;16.20;;;;;;;21.24;44.65;98732.03;4205828;28;20682;-84
2022/03/28 10:25:05;;;;;;;22.00;15.20;;;;;;;21.24;45.31;98732.03;4192108;28;20631;-84
2022/03/28 10:27:09;;;;;;;23.17;16.13;;;;;;;21.25;45.31;98731.88;4209832;28;20661;-84
2022/03/28 10:29:17;;;;;;;28.13;15.77;;;;;;;21.36;48.00;98734.25;4194306;28;20742;-83
2022/03/28 10:31:20;;;;;;;26.47;16.30;;;;;;;21.55;48.46;98726.13;4205785;28;20615;-83
2022/03/28 10:33:48;;;;;;;22.90;16.30;;;;;;;21.72;47.85;98726.06;4186624;28;20655;-85
2022/03/28 10:36:00;;;;;;;21.23;16.10;;;;;;;21.82;48.00;98718.81;4203137;28;20637;-84
2022/03/28 10:38:16;;;;;;;24.60;15.30;;;;;;;21.87;47.68;98714.66;4223547;28;21068;-83
2022/03/28 10:40:27;;;;;;;24.77;16.17;;;;;;;21.86;44.99;98714.81;4208609;28;20722;-84
2022/03/28 10:42:31;;;;;;;24.20;16.30;;;;;;;21.82;45.54;98708.19;4203311;28;21263;-84
2022/03/28 10:44:47;;;;;;;24.87;16.87;;;;;;;21.87;47.55;98708.53;4204216;28;20643;-84
2022/03/28 10:47:05;;;;;;;25.40;15.93;;;;;;;21.89;45.69;98703.88;4207660;28;20623;-83
2022/03/28 10:49:09;;;;;;;21.07;15.77;;;;;;;21.80;45.10;98705.69;4192083;28;21239;-85